sensor_id;sensor_type;location;lat;lon;timestamp;temperature;humidity
39067;DHT22;24821;51.988;6.020;2023-03-08T00:02:24;1.20;99.90
39067;DHT22;24821;51.988;6.020;2023-03-08T00:04:53;1.20;99.90
39067;DHT22;24821;51.988;6.020;2023-03-08T00:07:20;1.20;99.90
39067;DHT22;24821;51.988;6.020;2023-03-08T00:09:45;1.20;99.90
39067;DHT22;24821;51.988;6.020;2023-03-08T00:12:11;1.10;99.90
39067;DHT22;24821;51.988;6.020;2023-03-08T00:14:36;1.30;99.90
39067;DHT22;24821;51.988;6.020;2023-03-08T00:17:02;1.10;99.90
39067;DHT22;24821;51.988;6.020;2023-03-08T00:19:28;1.10;99.90
39067;DHT22;24821;51.988;6.020;2023-03-08T00:21:54;1.10;99.90
39067;DHT22;24821;51.988;6.020;2023-03-08T00:24:19;1.10;99.90
39067;DHT22;24821;51.988;6.020;2023-03-08T00:26:45;1.10;99.90
39067;DHT22;24821;51.988;6.020;2023-03-08T00:29:11;1.10;99.90
39067;DHT22;24821;51.988;6.020;2023-03-08T00:31:36;1.00;99.90
39067;DHT22;24821;51.988;6.020;2023-03-08T00:34:02;1.00;99.90
39067;DHT22;24821;51.988;6.020;2023-03-08T00:36:27;1.00;99.90
39067;DHT22;24821;51.988;6.020;2023-03-08T00:38:53;1.00;99.90
39067;DHT22;24821;51.988;6.020;2023-03-08T00:41:20;1.00;99.90
39067;DHT22;24821;51.988;6.020;2023-03-08T00:43:46;1.00;99.90
39067;DHT22;24821;51.988;6.020;2023-03-08T00:46:12;1.00;99.90
39067;DHT22;24821;51.988;6.020;2023-03-08T00:48:39;1.00;99.90
39067;DHT22;24821;51.988;6.020;2023-03-08T00:51:05;1.00;99.90
39067;DHT22;24821;51.988;6.020;2023-03-08T00:53:30;1.00;99.90
39067;DHT22;24821;51.988;6.020;2023-03-08T00:55:58;1.00;99.90
39067;DHT22;24821;51.988;6.020;2023-03-08T00:58:27;1.00;99.90
39067;DHT22;24821;51.988;6.020;2023-03-08T01:00:53;1.00;99.90
39067;DHT22;24821;51.988;6.020;2023-03-08T01:03:19;1.00;99.90
39067;DHT22;24821;51.988;6.020;2023-03-08T01:05:48;1.00;99.90
39067;DHT22;24821;51.988;6.020;2023-03-08T01:08:15;1.00;99.90
39067;DHT22;24821;51.988;6.020;2023-03-08T01:10:50;1.00;99.90
39067;DHT22;24821;51.988;6.020;2023-03-08T01:13:15;1.00;99.90
39067;DHT22;24821;51.988;6.020;2023-03-08T01:15:41;0.90;99.90
39067;DHT22;24821;51.988;6.020;2023-03-08T01:18:06;0.90;99.90
39067;DHT22;24821;51.988;6.020;2023-03-08T01:20:32;0.90;99.90
39067;DHT22;24821;51.988;6.020;2023-03-08T01:22:58;0.90;99.90
39067;DHT22;24821;51.988;6.020;2023-03-08T01:25:24;0.90;99.90
39067;DHT22;24821;51.988;6.020;2023-03-08T01:27:50;0.90;99.90
39067;DHT22;24821;51.988;6.020;2023-03-08T01:30:16;0.90;99.90
39067;DHT22;24821;51.988;6.020;2023-03-08T01:32:41;0.90;99.90
39067;DHT22;24821;51.988;6.020;2023-03-08T01:35:08;0.90;99.90
39067;DHT22;24821;51.988;6.020;2023-03-08T01:37:33;0.90;99.90
39067;DHT22;24821;51.988;6.020;2023-03-08T01:39:59;0.90;99.90
39067;DHT22;24821;51.988;6.020;2023-03-08T01:42:25;0.90;99.90
39067;DHT22;24821;51.988;6.020;2023-03-08T01:45:02;0.80;99.90
39067;DHT22;24821;51.988;6.020;2023-03-08T01:47:31;0.80;99.90
39067;DHT22;24821;51.988;6.020;2023-03-08T01:50:05;0.70;99.90
39067;DHT22;24821;51.988;6.020;2023-03-08T01:52:36;0.70;99.90
39067;DHT22;24821;51.988;6.020;2023-03-08T01:55:06;0.70;99.90
39067;DHT22;24821;51.988;6.020;2023-03-08T01:57:38;0.80;99.90
39067;DHT22;24821;51.988;6.020;2023-03-08T02:00:07;0.80;99.90
39067;DHT22;24821;51.988;6.020;2023-03-08T02:02:57;0.80;99.90
39067;DHT22;24821;51.988;6.020;2023-03-08T02:05:23;1.00;99.90
39067;DHT22;24821;51.988;6.020;2023-03-08T02:07:49;0.90;99.90
39067;DHT22;24821;51.988;6.020;2023-03-08T02:10:15;1.00;99.90
39067;DHT22;24821;51.988;6.020;2023-03-08T02:12:41;1.00;99.90
39067;DHT22;24821;51.988;6.020;2023-03-08T02:15:10;1.10;99.90
39067;DHT22;24821;51.988;6.020;2023-03-08T02:17:37;1.10;99.90
39067;DHT22;24821;51.988;6.020;2023-03-08T02:20:23;1.10;99.90
39067;DHT22;24821;51.988;6.020;2023-03-08T02:22:50;1.10;99.90
39067;DHT22;24821;51.988;6.020;2023-03-08T02:25:23;1.10;99.90
39067;DHT22;24821;51.988;6.020;2023-03-08T02:27:50;1.10;99.90
39067;DHT22;24821;51.988;6.020;2023-03-08T02:30:26;1.20;99.90
39067;DHT22;24821;51.988;6.020;2023-03-08T02:32:53;1.20;99.90
39067;DHT22;24821;51.988;6.020;2023-03-08T02:35:19;1.20;99.90
39067;DHT22;24821;51.988;6.020;2023-03-08T02:37:45;1.20;99.90
39067;DHT22;24821;51.988;6.020;2023-03-08T02:40:11;1.30;99.90
39067;DHT22;24821;51.988;6.020;2023-03-08T02:42:37;1.20;99.90
39067;DHT22;24821;51.988;6.020;2023-03-08T02:45:03;1.20;99.90
39067;DHT22;24821;51.988;6.020;2023-03-08T02:47:28;1.20;99.90
39067;DHT22;24821;51.988;6.020;2023-03-08T02:49:54;1.30;99.90
39067;DHT22;24821;51.988;6.020;2023-03-08T02:52:20;1.30;99.90
39067;DHT22;24821;51.988;6.020;2023-03-08T02:54:45;1.30;99.90
39067;DHT22;24821;51.988;6.020;2023-03-08T02:57:11;1.30;99.90
39067;DHT22;24821;51.988;6.020;2023-03-08T02:59:36;1.40;99.90
39067;DHT22;24821;51.988;6.020;2023-03-08T03:02:02;1.40;99.90
39067;DHT22;24821;51.988;6.020;2023-03-08T03:04:29;1.50;99.90
39067;DHT22;24821;51.988;6.020;2023-03-08T03:06:56;1.50;99.90
39067;DHT22;24821;51.988;6.020;2023-03-08T03:09:21;1.50;99.90
39067;DHT22;24821;51.988;6.020;2023-03-08T03:11:47;1.50;99.90
39067;DHT22;24821;51.988;6.020;2023-03-08T03:14:13;1.60;99.90
39067;DHT22;24821;51.988;6.020;2023-03-08T03:16:38;1.50;99.90
39067;DHT22;24821;51.988;6.020;2023-03-08T03:19:04;1.50;99.90
39067;DHT22;24821;51.988;6.020;2023-03-08T03:21:29;1.50;99.90
39067;DHT22;24821;51.988;6.020;2023-03-08T03:23:55;1.50;99.90
39067;DHT22;24821;51.988;6.020;2023-03-08T03:26:22;1.50;99.90
39067;DHT22;24821;51.988;6.020;2023-03-08T03:28:48;1.50;99.90
39067;DHT22;24821;51.988;6.020;2023-03-08T03:31:19;1.50;99.90
39067;DHT22;24821;51.988;6.020;2023-03-08T03:33:46;1.50;99.90
39067;DHT22;24821;51.988;6.020;2023-03-08T03:36:14;1.50;99.90
39067;DHT22;24821;51.988;6.020;2023-03-08T03:38:40;1.50;99.90
39067;DHT22;24821;51.988;6.020;2023-03-08T03:41:08;1.50;99.90
39067;DHT22;24821;51.988;6.020;2023-03-08T03:43:34;1.60;99.90
39067;DHT22;24821;51.988;6.020;2023-03-08T03:46:03;1.60;99.90
39067;DHT22;24821;51.988;6.020;2023-03-08T03:48:29;1.60;99.90
39067;DHT22;24821;51.988;6.020;2023-03-08T03:50:59;1.60;99.90
39067;DHT22;24821;51.988;6.020;2023-03-08T03:53:27;1.60;99.90
39067;DHT22;24821;51.988;6.020;2023-03-08T03:55:53;1.70;99.90
39067;DHT22;24821;51.988;6.020;2023-03-08T03:58:18;1.70;99.90
39067;DHT22;24821;51.988;6.020;2023-03-08T04:00:44;1.70;99.90
39067;DHT22;24821;51.988;6.020;2023-03-08T04:03:09;1.80;99.90
39067;DHT22;24821;51.988;6.020;2023-03-08T04:05:35;1.80;99.90
39067;DHT22;24821;51.988;6.020;2023-03-08T04:08:01;1.80;99.90
39067;DHT22;24821;51.988;6.020;2023-03-08T04:10:26;1.80;99.90
39067;DHT22;24821;51.988;6.020;2023-03-08T04:12:52;1.80;99.90
39067;DHT22;24821;51.988;6.020;2023-03-08T04:15:18;1.80;99.90
39067;DHT22;24821;51.988;6.020;2023-03-08T04:17:43;1.80;99.90
39067;DHT22;24821;51.988;6.020;2023-03-08T04:20:09;1.90;99.90
39067;DHT22;24821;51.988;6.020;2023-03-08T04:22:35;1.90;99.90
39067;DHT22;24821;51.988;6.020;2023-03-08T04:25:01;2.00;99.90
39067;DHT22;24821;51.988;6.020;2023-03-08T04:27:27;2.00;99.90
39067;DHT22;24821;51.988;6.020;2023-03-08T04:29:53;2.00;99.90
39067;DHT22;24821;51.988;6.020;2023-03-08T04:32:19;2.00;99.90
39067;DHT22;24821;51.988;6.020;2023-03-08T04:34:44;2.00;99.90
39067;DHT22;24821;51.988;6.020;2023-03-08T04:37:10;2.00;99.90
39067;DHT22;24821;51.988;6.020;2023-03-08T04:39:36;2.00;99.90
39067;DHT22;24821;51.988;6.020;2023-03-08T04:42:02;2.00;99.90
39067;DHT22;24821;51.988;6.020;2023-03-08T04:44:28;2.00;99.90
39067;DHT22;24821;51.988;6.020;2023-03-08T04:46:53;2.00;99.90
39067;DHT22;24821;51.988;6.020;2023-03-08T04:49:19;2.00;99.90
39067;DHT22;24821;51.988;6.020;2023-03-08T04:51:45;2.00;99.90
39067;DHT22;24821;51.988;6.020;2023-03-08T04:54:10;1.90;99.90
39067;DHT22;24821;51.988;6.020;2023-03-08T04:56:36;2.00;99.90
39067;DHT22;24821;51.988;6.020;2023-03-08T04:59:02;2.00;99.90
39067;DHT22;24821;51.988;6.020;2023-03-08T05:01:27;2.00;99.90
39067;DHT22;24821;51.988;6.020;2023-03-08T05:03:53;2.00;99.90
39067;DHT22;24821;51.988;6.020;2023-03-08T05:06:21;2.00;99.90
39067;DHT22;24821;51.988;6.020;2023-03-08T05:08:47;2.00;99.90
39067;DHT22;24821;51.988;6.020;2023-03-08T05:11:25;1.90;99.90
39067;DHT22;24821;51.988;6.020;2023-03-08T05:13:53;1.90;99.90
39067;DHT22;24821;51.988;6.020;2023-03-08T05:16:19;1.90;99.90
39067;DHT22;24821;51.988;6.020;2023-03-08T05:18:44;2.00;99.90
39067;DHT22;24821;51.988;6.020;2023-03-08T05:21:13;2.00;99.90
39067;DHT22;24821;51.988;6.020;2023-03-08T05:23:39;1.90;99.90
39067;DHT22;24821;51.988;6.020;2023-03-08T05:26:06;1.90;99.90
39067;DHT22;24821;51.988;6.020;2023-03-08T05:28:33;1.90;99.90
39067;DHT22;24821;51.988;6.020;2023-03-08T05:31:06;1.90;99.90
39067;DHT22;24821;51.988;6.020;2023-03-08T05:33:32;1.90;99.90
39067;DHT22;24821;51.988;6.020;2023-03-08T05:35:58;1.80;99.90
39067;DHT22;24821;51.988;6.020;2023-03-08T05:38:24;1.90;99.90
39067;DHT22;24821;51.988;6.020;2023-03-08T05:40:50;1.80;99.90
39067;DHT22;24821;51.988;6.020;2023-03-08T05:43:17;1.80;99.90
39067;DHT22;24821;51.988;6.020;2023-03-08T05:45:52;1.80;99.90
39067;DHT22;24821;51.988;6.020;2023-03-08T05:48:18;1.90;99.90
39067;DHT22;24821;51.988;6.020;2023-03-08T05:50:43;1.90;99.90
39067;DHT22;24821;51.988;6.020;2023-03-08T05:53:09;1.90;99.90
39067;DHT22;24821;51.988;6.020;2023-03-08T05:55:34;1.90;99.90
39067;DHT22;24821;51.988;6.020;2023-03-08T05:58:00;1.80;99.90
39067;DHT22;24821;51.988;6.020;2023-03-08T06:00:25;1.80;99.90
39067;DHT22;24821;51.988;6.020;2023-03-08T06:02:51;1.80;99.90
39067;DHT22;24821;51.988;6.020;2023-03-08T06:05:16;1.80;99.90
39067;DHT22;24821;51.988;6.020;2023-03-08T06:07:42;1.80;99.90
39067;DHT22;24821;51.988;6.020;2023-03-08T06:10:09;1.80;99.90
39067;DHT22;24821;51.988;6.020;2023-03-08T06:12:34;1.70;99.90
39067;DHT22;24821;51.988;6.020;2023-03-08T06:15:00;1.70;99.90
39067;DHT22;24821;51.988;6.020;2023-03-08T06:17:25;1.70;99.90
39067;DHT22;24821;51.988;6.020;2023-03-08T06:19:51;1.60;99.90
39067;DHT22;24821;51.988;6.020;2023-03-08T06:22:16;1.60;99.90
39067;DHT22;24821;51.988;6.020;2023-03-08T06:24:42;1.60;99.90
39067;DHT22;24821;51.988;6.020;2023-03-08T06:27:07;1.60;99.90
39067;DHT22;24821;51.988;6.020;2023-03-08T06:29:33;1.60;99.90
39067;DHT22;24821;51.988;6.020;2023-03-08T06:31:59;1.60;99.90
39067;DHT22;24821;51.988;6.020;2023-03-08T06:34:24;1.50;99.90
39067;DHT22;24821;51.988;6.020;2023-03-08T06:36:50;1.50;99.90
39067;DHT22;24821;51.988;6.020;2023-03-08T06:39:16;1.50;99.90
39067;DHT22;24821;51.988;6.020;2023-03-08T06:41:41;1.60;99.90
39067;DHT22;24821;51.988;6.020;2023-03-08T06:44:09;1.60;99.90
39067;DHT22;24821;51.988;6.020;2023-03-08T06:46:34;1.60;99.90
39067;DHT22;24821;51.988;6.020;2023-03-08T06:49:00;1.70;99.90
39067;DHT22;24821;51.988;6.020;2023-03-08T06:51:25;1.70;99.90
39067;DHT22;24821;51.988;6.020;2023-03-08T06:53:51;1.70;99.90
39067;DHT22;24821;51.988;6.020;2023-03-08T06:56:17;1.70;99.90
39067;DHT22;24821;51.988;6.020;2023-03-08T06:58:42;1.80;99.90
39067;DHT22;24821;51.988;6.020;2023-03-08T07:01:11;1.80;99.90
39067;DHT22;24821;51.988;6.020;2023-03-08T07:03:37;1.90;99.90
39067;DHT22;24821;51.988;6.020;2023-03-08T07:06:08;1.90;99.90
39067;DHT22;24821;51.988;6.020;2023-03-08T07:08:35;2.00;99.90
39067;DHT22;24821;51.988;6.020;2023-03-08T07:11:01;2.00;99.90
39067;DHT22;24821;51.988;6.020;2023-03-08T07:13:27;2.00;99.90
39067;DHT22;24821;51.988;6.020;2023-03-08T07:15:54;2.10;99.90
39067;DHT22;24821;51.988;6.020;2023-03-08T07:18:20;2.10;99.90
39067;DHT22;24821;51.988;6.020;2023-03-08T07:20:59;2.10;99.90
39067;DHT22;24821;51.988;6.020;2023-03-08T07:23:25;2.20;99.90
39067;DHT22;24821;51.988;6.020;2023-03-08T07:25:50;2.20;99.90
39067;DHT22;24821;51.988;6.020;2023-03-08T07:28:16;2.20;99.90
39067;DHT22;24821;51.988;6.020;2023-03-08T07:30:46;2.20;99.90
39067;DHT22;24821;51.988;6.020;2023-03-08T07:33:13;2.20;99.90
39067;DHT22;24821;51.988;6.020;2023-03-08T07:35:39;2.20;99.90
39067;DHT22;24821;51.988;6.020;2023-03-08T07:38:04;2.20;99.90
39067;DHT22;24821;51.988;6.020;2023-03-08T07:40:30;2.20;99.90
39067;DHT22;24821;51.988;6.020;2023-03-08T07:42:55;2.30;99.90
39067;DHT22;24821;51.988;6.020;2023-03-08T07:45:21;2.30;99.90
39067;DHT22;24821;51.988;6.020;2023-03-08T07:47:49;2.30;99.90
39067;DHT22;24821;51.988;6.020;2023-03-08T07:50:17;2.30;99.90
39067;DHT22;24821;51.988;6.020;2023-03-08T07:52:42;2.30;99.90
39067;DHT22;24821;51.988;6.020;2023-03-08T07:55:09;2.40;99.90
39067;DHT22;24821;51.988;6.020;2023-03-08T07:57:35;2.30;99.90
39067;DHT22;24821;51.988;6.020;2023-03-08T08:00:01;2.40;99.90
39067;DHT22;24821;51.988;6.020;2023-03-08T08:02:26;2.40;99.90
39067;DHT22;24821;51.988;6.020;2023-03-08T08:04:52;2.50;99.90
39067;DHT22;24821;51.988;6.020;2023-03-08T08:07:18;2.50;99.90
39067;DHT22;24821;51.988;6.020;2023-03-08T08:09:43;2.50;99.90
39067;DHT22;24821;51.988;6.020;2023-03-08T08:12:09;2.50;99.90
39067;DHT22;24821;51.988;6.020;2023-03-08T08:14:35;2.50;99.90
39067;DHT22;24821;51.988;6.020;2023-03-08T08:17:00;2.50;99.90
39067;DHT22;24821;51.988;6.020;2023-03-08T08:19:26;2.50;99.90
39067;DHT22;24821;51.988;6.020;2023-03-08T08:21:51;2.60;99.90
39067;DHT22;24821;51.988;6.020;2023-03-08T08:24:17;2.60;99.90
39067;DHT22;24821;51.988;6.020;2023-03-08T08:26:43;2.70;99.90
39067;DHT22;24821;51.988;6.020;2023-03-08T08:29:08;2.70;99.90
39067;DHT22;24821;51.988;6.020;2023-03-08T08:31:34;2.80;99.90
39067;DHT22;24821;51.988;6.020;2023-03-08T08:34:00;2.80;99.90
39067;DHT22;24821;51.988;6.020;2023-03-08T08:36:26;2.90;99.90
39067;DHT22;24821;51.988;6.020;2023-03-08T08:38:53;3.00;99.90
39067;DHT22;24821;51.988;6.020;2023-03-08T08:41:20;3.10;99.90
39067;DHT22;24821;51.988;6.020;2023-03-08T08:43:47;3.10;99.90
39067;DHT22;24821;51.988;6.020;2023-03-08T08:46:13;3.20;99.90
39067;DHT22;24821;51.988;6.020;2023-03-08T08:48:39;3.30;99.90
39067;DHT22;24821;51.988;6.020;2023-03-08T08:51:06;3.40;99.90
39067;DHT22;24821;51.988;6.020;2023-03-08T08:53:33;3.40;99.90
39067;DHT22;24821;51.988;6.020;2023-03-08T08:56:07;3.40;99.90
39067;DHT22;24821;51.988;6.020;2023-03-08T08:58:33;3.40;99.90
39067;DHT22;24821;51.988;6.020;2023-03-08T09:00:58;3.40;99.90
39067;DHT22;24821;51.988;6.020;2023-03-08T09:03:24;3.30;99.90
39067;DHT22;24821;51.988;6.020;2023-03-08T09:05:50;3.40;99.90
39067;DHT22;24821;51.988;6.020;2023-03-08T09:08:15;3.40;99.90
39067;DHT22;24821;51.988;6.020;2023-03-08T09:10:41;3.40;99.90
39067;DHT22;24821;51.988;6.020;2023-03-08T09:13:07;3.40;99.90
39067;DHT22;24821;51.988;6.020;2023-03-08T09:15:34;3.40;99.90
39067;DHT22;24821;51.988;6.020;2023-03-08T09:17:59;3.40;99.90
39067;DHT22;24821;51.988;6.020;2023-03-08T09:20:25;3.50;99.90
39067;DHT22;24821;51.988;6.020;2023-03-08T09:22:51;3.50;99.90
39067;DHT22;24821;51.988;6.020;2023-03-08T09:25:17;3.50;99.90
39067;DHT22;24821;51.988;6.020;2023-03-08T09:27:47;3.60;99.90
39067;DHT22;24821;51.988;6.020;2023-03-08T09:30:13;3.60;99.90
39067;DHT22;24821;51.988;6.020;2023-03-08T09:32:39;3.50;99.90
39067;DHT22;24821;51.988;6.020;2023-03-08T09:35:05;3.50;99.90
39067;DHT22;24821;51.988;6.020;2023-03-08T09:37:31;3.50;99.90
39067;DHT22;24821;51.988;6.020;2023-03-08T09:39:57;3.60;99.90
39067;DHT22;24821;51.988;6.020;2023-03-08T09:42:26;3.60;99.90
39067;DHT22;24821;51.988;6.020;2023-03-08T09:47:57;3.60;99.90
39067;DHT22;24821;51.988;6.020;2023-03-08T09:53:26;3.60;99.90
39067;DHT22;24821;51.988;6.020;2023-03-08T09:58:47;3.60;99.90
39067;DHT22;24821;51.988;6.020;2023-03-08T10:09:06;4.00;99.90
39067;DHT22;24821;51.988;6.020;2023-03-08T10:11:41;4.00;99.90
39067;DHT22;24821;51.988;6.020;2023-03-08T10:14:41;3.90;99.90
39067;DHT22;24821;51.988;6.020;2023-03-08T10:17:25;3.80;99.90
39067;DHT22;24821;51.988;6.020;2023-03-08T10:20:06;3.90;99.90
39067;DHT22;24821;51.988;6.020;2023-03-08T10:22:37;3.90;99.90
39067;DHT22;24821;51.988;6.020;2023-03-08T10:25:29;4.10;99.90
39067;DHT22;24821;51.988;6.020;2023-03-08T10:27:57;4.20;99.90
39067;DHT22;24821;51.988;6.020;2023-03-08T10:30:31;4.20;99.90
39067;DHT22;24821;51.988;6.020;2023-03-08T10:32:59;4.20;99.90
39067;DHT22;24821;51.988;6.020;2023-03-08T10:35:36;4.20;99.90
39067;DHT22;24821;51.988;6.020;2023-03-08T10:38:04;4.20;99.90
39067;DHT22;24821;51.988;6.020;2023-03-08T10:40:29;4.20;99.90
39067;DHT22;24821;51.988;6.020;2023-03-08T10:42:58;4.20;99.90
39067;DHT22;24821;51.988;6.020;2023-03-08T10:45:26;4.30;99.90
39067;DHT22;24821;51.988;6.020;2023-03-08T10:47:54;4.40;99.90
39067;DHT22;24821;51.988;6.020;2023-03-08T10:50:24;4.50;99.90
39067;DHT22;24821;51.988;6.020;2023-03-08T10:52:50;4.70;99.90
39067;DHT22;24821;51.988;6.020;2023-03-08T10:55:18;4.90;99.90
39067;DHT22;24821;51.988;6.020;2023-03-08T10:57:54;4.90;99.90
39067;DHT22;24821;51.988;6.020;2023-03-08T11:00:23;5.00;99.90
39067;DHT22;24821;51.988;6.020;2023-03-08T11:03:13;5.00;99.90
39067;DHT22;24821;51.988;6.020;2023-03-08T11:05:39;5.10;99.90
39067;DHT22;24821;51.988;6.020;2023-03-08T11:08:17;5.10;99.90
39067;DHT22;24821;51.988;6.020;2023-03-08T11:10:43;5.20;99.90
39067;DHT22;24821;51.988;6.020;2023-03-08T11:13:24;5.20;99.90
39067;DHT22;24821;51.988;6.020;2023-03-08T11:18:42;5.40;99.90
39067;DHT22;24821;51.988;6.020;2023-03-08T11:21:19;5.40;99.90
39067;DHT22;24821;51.988;6.020;2023-03-08T11:23:48;5.50;99.90
39067;DHT22;24821;51.988;6.020;2023-03-08T11:26:42;5.60;99.90
39067;DHT22;24821;51.988;6.020;2023-03-08T11:32:22;5.60;99.90
39067;DHT22;24821;51.988;6.020;2023-03-08T11:35:30;5.50;99.90
39067;DHT22;24821;51.988;6.020;2023-03-08T11:38:11;5.50;99.90
39067;DHT22;24821;51.988;6.020;2023-03-08T11:40:55;5.50;99.90
39067;DHT22;24821;51.988;6.020;2023-03-08T11:43:38;5.50;99.90
39067;DHT22;24821;51.988;6.020;2023-03-08T11:46:22;5.50;99.90
39067;DHT22;24821;51.988;6.020;2023-03-08T11:49:14;5.50;99.90
39067;DHT22;24821;51.988;6.020;2023-03-08T11:52:02;5.50;99.90
39067;DHT22;24821;51.988;6.020;2023-03-08T11:57:02;5.30;99.90
39067;DHT22;24821;51.988;6.020;2023-03-08T11:59:33;5.20;99.90
39067;DHT22;24821;51.988;6.020;2023-03-08T12:04:37;5.20;99.90
39067;DHT22;24821;51.988;6.020;2023-03-08T12:07:30;5.30;99.90
39067;DHT22;24821;51.988;6.020;2023-03-08T12:10:23;5.30;99.90
39067;DHT22;24821;51.988;6.020;2023-03-08T12:13:10;5.30;99.90
39067;DHT22;24821;51.988;6.020;2023-03-08T12:15:43;5.30;99.90
39067;DHT22;24821;51.988;6.020;2023-03-08T12:21:26;4.90;99.90
39067;DHT22;24821;51.988;6.020;2023-03-08T12:26:45;5.00;99.90
39067;DHT22;24821;51.988;6.020;2023-03-08T12:32:20;5.10;99.90
39067;DHT22;24821;51.988;6.020;2023-03-08T12:34:46;5.10;99.90
39067;DHT22;24821;51.988;6.020;2023-03-08T12:37:21;5.10;99.90
39067;DHT22;24821;51.988;6.020;2023-03-08T12:42:31;5.20;99.90
39067;DHT22;24821;51.988;6.020;2023-03-08T12:47:32;5.10;99.90
39067;DHT22;24821;51.988;6.020;2023-03-08T12:50:08;5.10;99.90
39067;DHT22;24821;51.988;6.020;2023-03-08T12:52:34;5.20;99.90
39067;DHT22;24821;51.988;6.020;2023-03-08T12:57:35;5.30;99.90
39067;DHT22;24821;51.988;6.020;2023-03-08T13:00:22;5.30;99.90
39067;DHT22;24821;51.988;6.020;2023-03-08T13:05:50;5.10;99.90
39067;DHT22;24821;51.988;6.020;2023-03-08T13:08:20;5.00;99.90
39067;DHT22;24821;51.988;6.020;2023-03-08T13:13:35;4.90;99.90
39067;DHT22;24821;51.988;6.020;2023-03-08T13:18:49;4.90;99.90
39067;DHT22;24821;51.988;6.020;2023-03-08T13:21:31;4.80;99.90
39067;DHT22;24821;51.988;6.020;2023-03-08T13:24:40;4.90;99.90
39067;DHT22;24821;51.988;6.020;2023-03-08T13:29:52;4.90;99.90
39067;DHT22;24821;51.988;6.020;2023-03-08T13:32:20;4.80;99.90
39067;DHT22;24821;51.988;6.020;2023-03-08T13:34:58;4.80;99.90
39067;DHT22;24821;51.988;6.020;2023-03-08T13:37:27;4.80;99.90
39067;DHT22;24821;51.988;6.020;2023-03-08T13:39:54;4.90;99.90
39067;DHT22;24821;51.988;6.020;2023-03-08T13:42:21;4.90;99.90
39067;DHT22;24821;51.988;6.020;2023-03-08T13:44:52;4.90;99.90
39067;DHT22;24821;51.988;6.020;2023-03-08T13:47:22;5.00;99.90
39067;DHT22;24821;51.988;6.020;2023-03-08T13:49:49;5.10;99.90
39067;DHT22;24821;51.988;6.020;2023-03-08T13:52:19;5.10;99.90
39067;DHT22;24821;51.988;6.020;2023-03-08T13:54:49;5.10;99.90
39067;DHT22;24821;51.988;6.020;2023-03-08T13:57:22;5.10;99.90
39067;DHT22;24821;51.988;6.020;2023-03-08T13:59:57;5.20;99.90
39067;DHT22;24821;51.988;6.020;2023-03-08T14:02:23;5.10;99.90
39067;DHT22;24821;51.988;6.020;2023-03-08T14:04:50;5.10;99.90
39067;DHT22;24821;51.988;6.020;2023-03-08T14:07:24;5.10;99.90
39067;DHT22;24821;51.988;6.020;2023-03-08T14:09:50;5.10;99.90
39067;DHT22;24821;51.988;6.020;2023-03-08T14:12:18;5.10;99.90
39067;DHT22;24821;51.988;6.020;2023-03-08T14:14:48;5.10;99.90
39067;DHT22;24821;51.988;6.020;2023-03-08T14:17:22;5.10;99.90
39067;DHT22;24821;51.988;6.020;2023-03-08T14:19:54;5.00;99.90
39067;DHT22;24821;51.988;6.020;2023-03-08T14:22:21;5.00;99.90
39067;DHT22;24821;51.988;6.020;2023-03-08T14:24:53;5.00;99.90
39067;DHT22;24821;51.988;6.020;2023-03-08T14:27:39;5.00;99.90
39067;DHT22;24821;51.988;6.020;2023-03-08T14:30:25;5.00;99.90
39067;DHT22;24821;51.988;6.020;2023-03-08T14:35:43;5.20;99.90
39067;DHT22;24821;51.988;6.020;2023-03-08T14:38:19;5.20;99.90
39067;DHT22;24821;51.988;6.020;2023-03-08T14:40:47;5.20;99.90
39067;DHT22;24821;51.988;6.020;2023-03-08T14:43:17;5.20;99.90
39067;DHT22;24821;51.988;6.020;2023-03-08T14:56:01;5.20;99.90
39067;DHT22;24821;51.988;6.020;2023-03-08T14:58:30;5.20;99.90
39067;DHT22;24821;51.988;6.020;2023-03-08T15:00:58;5.20;99.90
39067;DHT22;24821;51.988;6.020;2023-03-08T15:03:25;5.10;99.90
39067;DHT22;24821;51.988;6.020;2023-03-08T15:05:53;5.10;99.90
39067;DHT22;24821;51.988;6.020;2023-03-08T15:08:18;5.10;99.90
39067;DHT22;24821;51.988;6.020;2023-03-08T15:10:46;5.00;99.90
39067;DHT22;24821;51.988;6.020;2023-03-08T15:13:18;4.90;99.90
39067;DHT22;24821;51.988;6.020;2023-03-08T15:15:44;4.90;99.90
39067;DHT22;24821;51.988;6.020;2023-03-08T15:18:10;4.90;99.90
39067;DHT22;24821;51.988;6.020;2023-03-08T15:20:37;4.90;99.90
39067;DHT22;24821;51.988;6.020;2023-03-08T15:23:06;4.90;99.90
39067;DHT22;24821;51.988;6.020;2023-03-08T15:25:35;4.80;99.90
39067;DHT22;24821;51.988;6.020;2023-03-08T15:28:01;4.80;99.90
39067;DHT22;24821;51.988;6.020;2023-03-08T15:30:28;4.70;99.90
39067;DHT22;24821;51.988;6.020;2023-03-08T15:32:55;4.70;99.90
39067;DHT22;24821;51.988;6.020;2023-03-08T15:35:22;4.60;99.90
39067;DHT22;24821;51.988;6.020;2023-03-08T15:37:49;4.60;99.90
39067;DHT22;24821;51.988;6.020;2023-03-08T15:40:28;4.50;99.90
39067;DHT22;24821;51.988;6.020;2023-03-08T15:42:53;4.60;99.90
39067;DHT22;24821;51.988;6.020;2023-03-08T15:45:19;4.50;99.90
39067;DHT22;24821;51.988;6.020;2023-03-08T15:48:17;4.50;99.90
39067;DHT22;24821;51.988;6.020;2023-03-08T15:50:43;4.50;99.90
39067;DHT22;24821;51.988;6.020;2023-03-08T15:53:10;4.50;99.90
39067;DHT22;24821;51.988;6.020;2023-03-08T15:55:37;4.50;99.90
39067;DHT22;24821;51.988;6.020;2023-03-08T15:58:02;4.50;99.90
39067;DHT22;24821;51.988;6.020;2023-03-08T16:00:28;4.40;99.90
39067;DHT22;24821;51.988;6.020;2023-03-08T16:02:54;4.40;99.90
39067;DHT22;24821;51.988;6.020;2023-03-08T16:05:21;4.30;99.90
39067;DHT22;24821;51.988;6.020;2023-03-08T16:07:58;4.30;99.90
39067;DHT22;24821;51.988;6.020;2023-03-08T16:10:25;4.30;99.90
39067;DHT22;24821;51.988;6.020;2023-03-08T16:12:51;4.30;99.90
39067;DHT22;24821;51.988;6.020;2023-03-08T16:15:18;4.20;99.90
39067;DHT22;24821;51.988;6.020;2023-03-08T16:17:44;4.10;99.90
39067;DHT22;24821;51.988;6.020;2023-03-08T16:20:11;4.10;99.90
39067;DHT22;24821;51.988;6.020;2023-03-08T16:22:37;4.00;99.90
39067;DHT22;24821;51.988;6.020;2023-03-08T16:25:03;4.00;99.90
39067;DHT22;24821;51.988;6.020;2023-03-08T16:27:30;4.00;99.90
39067;DHT22;24821;51.988;6.020;2023-03-08T16:29:56;3.90;99.90
39067;DHT22;24821;51.988;6.020;2023-03-08T16:32:21;4.00;99.90
39067;DHT22;24821;51.988;6.020;2023-03-08T16:34:47;4.00;99.90
39067;DHT22;24821;51.988;6.020;2023-03-08T16:37:19;3.90;99.90
39067;DHT22;24821;51.988;6.020;2023-03-08T16:39:47;3.90;99.90
39067;DHT22;24821;51.988;6.020;2023-03-08T16:42:14;4.00;99.90
39067;DHT22;24821;51.988;6.020;2023-03-08T16:44:41;4.00;99.90
39067;DHT22;24821;51.988;6.020;2023-03-08T16:47:11;4.00;99.90
39067;DHT22;24821;51.988;6.020;2023-03-08T16:49:37;3.90;99.90
39067;DHT22;24821;51.988;6.020;2023-03-08T16:52:03;3.90;99.90
39067;DHT22;24821;51.988;6.020;2023-03-08T16:54:29;3.90;99.90
39067;DHT22;24821;51.988;6.020;2023-03-08T16:56:55;3.90;99.90
39067;DHT22;24821;51.988;6.020;2023-03-08T16:59:22;3.80;99.90
39067;DHT22;24821;51.988;6.020;2023-03-08T17:01:47;3.80;99.90
39067;DHT22;24821;51.988;6.020;2023-03-08T17:04:14;3.80;99.90